createdAt,value
2022-08-03T00:02:22.710Z,10.60
2022-08-03T00:04:52.069Z,10.60
2022-08-03T00:07:21.519Z,10.90
2022-08-03T00:09:50.789Z,13.00
2022-08-03T00:12:20.437Z,11.80
2022-08-03T00:14:49.696Z,12.10
2022-08-03T00:17:18.921Z,9.90
2022-08-03T00:19:48.252Z,13.40
2022-08-03T00:22:17.883Z,14.20
2022-08-03T00:24:47.399Z,10.60
2022-08-03T00:27:16.846Z,11.40
2022-08-03T00:29:59.657Z,11.60
2022-08-03T00:32:29.821Z,11.20
2022-08-03T00:34:59.932Z,11.00
2022-08-03T00:37:40.624Z,9.80
2022-08-03T00:40:11.323Z,10.70
2022-08-03T00:42:40.532Z,11.50
2022-08-03T00:45:10.221Z,11.00
2022-08-03T00:47:39.889Z,10.50
2022-08-03T00:50:09.174Z,9.30
2022-08-03T00:52:38.391Z,8.50
2022-08-03T00:55:07.664Z,9.50
2022-08-03T00:57:37.123Z,9.20
2022-08-03T01:00:06.308Z,10.80
2022-08-03T01:02:35.612Z,11.20
2022-08-03T01:05:04.853Z,9.10
2022-08-03T01:07:34.115Z,11.90
2022-08-03T01:10:03.370Z,12.80
2022-08-03T01:12:33.410Z,9.50
2022-08-03T01:15:02.727Z,8.40
2022-08-03T01:17:31.943Z,8.90
2022-08-03T01:20:01.911Z,9.40
2022-08-03T01:22:31.462Z,8.50
2022-08-03T01:25:00.693Z,12.50
2022-08-03T01:27:29.907Z,10.50
2022-08-03T01:29:59.901Z,10.10
2022-08-03T01:32:53.426Z,8.80
2022-08-03T01:35:18.704Z,8.30
2022-08-03T01:37:49.295Z,9.70
2022-08-03T01:40:18.593Z,11.20
2022-08-03T01:42:48.218Z,8.70
2022-08-03T01:45:18.941Z,8.10
2022-08-03T01:47:48.314Z,9.30
2022-08-03T01:50:18.263Z,12.00
2022-08-03T01:52:47.883Z,8.90
2022-08-03T01:55:17.513Z,12.90
2022-08-03T01:58:05.765Z,8.40
2022-08-03T02:00:35.851Z,9.50
2022-08-03T02:03:05.213Z,9.90
2022-08-03T02:05:34.495Z,10.90
2022-08-03T02:08:03.751Z,9.60
2022-08-03T02:10:35.556Z,11.80
2022-08-03T02:13:05.336Z,13.30
2022-08-03T02:15:34.720Z,11.30
2022-08-03T02:18:03.913Z,10.70
2022-08-03T02:20:39.084Z,11.00
2022-08-03T02:23:08.808Z,12.40
2022-08-03T02:25:37.974Z,10.30
2022-08-03T02:28:07.182Z,11.80
2022-08-03T02:30:38.231Z,13.60
2022-08-03T02:33:07.813Z,12.00
2022-08-03T02:35:38.161Z,11.20
2022-08-03T02:38:07.318Z,10.80
2022-08-03T02:40:36.464Z,10.70
2022-08-03T02:43:05.636Z,10.10
2022-08-03T02:45:34.940Z,12.50
2022-08-03T02:48:04.117Z,9.70
2022-08-03T02:50:33.476Z,11.40
2022-08-03T02:53:02.646Z,13.70
2022-08-03T02:55:31.949Z,12.70
2022-08-03T02:58:01.819Z,12.50
2022-08-03T03:00:31.362Z,12.50
2022-08-03T03:03:00.794Z,11.70
2022-08-03T03:05:52.135Z,10.10
2022-08-03T03:08:26.106Z,12.40
2022-08-03T03:10:56.977Z,11.20
2022-08-03T03:13:26.251Z,10.50
2022-08-03T03:15:55.461Z,13.60
2022-08-03T03:18:24.718Z,11.40
2022-08-03T03:20:53.924Z,12.70
2022-08-03T03:23:23.286Z,13.00
2022-08-03T03:25:52.490Z,11.00
2022-08-03T03:28:21.795Z,12.20
2022-08-03T03:30:52.770Z,10.80
2022-08-03T03:33:22.813Z,12.20
2022-08-03T03:35:53.137Z,9.60
2022-08-03T03:38:22.482Z,9.90
2022-08-03T03:40:51.687Z,9.30
2022-08-03T03:43:20.942Z,7.00
2022-08-03T03:45:50.153Z,10.30
2022-08-03T03:48:19.412Z,10.40
2022-08-03T03:50:48.811Z,10.10
2022-08-03T03:53:18.218Z,12.00
2022-08-03T03:55:57.798Z,10.30
2022-08-03T03:58:32.065Z,12.20
2022-08-03T04:01:01.725Z,10.70
2022-08-03T04:03:31.322Z,8.40
2022-08-03T04:06:18.442Z,8.70
2022-08-03T04:09:05.113Z,7.20
2022-08-03T04:11:34.625Z,7.50
2022-08-03T04:14:03.956Z,6.90
2022-08-03T04:16:33.276Z,8.90
2022-08-03T04:19:02.553Z,9.10
2022-08-03T04:21:31.770Z,7.50
2022-08-03T04:24:01.021Z,8.30
2022-08-03T04:26:30.240Z,10.80
2022-08-03T04:28:59.452Z,9.10
2022-08-03T04:31:28.672Z,9.70
2022-08-03T04:33:59.293Z,10.20
2022-08-03T04:36:28.533Z,9.20
2022-08-03T04:38:58.233Z,9.30
2022-08-03T04:41:28.016Z,8.00
2022-08-03T04:43:57.284Z,7.80
2022-08-03T04:46:26.687Z,9.30
2022-08-03T04:48:56.016Z,9.90
2022-08-03T04:51:25.366Z,11.10
2022-08-03T04:53:54.631Z,9.70
2022-08-03T04:56:23.946Z,10.20
2022-08-03T04:58:53.291Z,9.60
2022-08-03T05:01:23.312Z,10.90
2022-08-03T05:03:53.090Z,13.00
2022-08-03T05:06:22.340Z,9.70
2022-08-03T05:08:55.462Z,11.20
2022-08-03T05:11:25.810Z,13.30
2022-08-03T05:13:55.150Z,10.30
2022-08-03T05:16:26.269Z,7.60
2022-08-03T05:18:55.637Z,9.70
2022-08-03T05:21:25.037Z,9.60
2022-08-03T05:24:11.081Z,10.20
2022-08-03T05:26:40.519Z,9.10
2022-08-03T05:29:09.915Z,9.10
2022-08-03T05:31:39.274Z,7.20
2022-08-03T05:34:09.568Z,8.40
2022-08-03T05:36:40.098Z,7.80
2022-08-03T05:39:09.357Z,6.90
2022-08-03T05:41:38.593Z,9.40
2022-08-03T05:44:07.915Z,8.80
2022-08-03T05:46:37.220Z,9.30
2022-08-03T05:49:06.498Z,6.70
2022-08-03T05:51:35.832Z,7.50
2022-08-03T05:54:05.164Z,10.90
2022-08-03T05:56:34.648Z,9.20
2022-08-03T05:59:16.518Z,6.60
2022-08-03T06:01:53.593Z,5.80
2022-08-03T06:04:22.888Z,6.20
2022-08-03T06:06:52.216Z,6.40
2022-08-03T06:09:21.488Z,6.70
2022-08-03T06:11:50.720Z,4.90
2022-08-03T06:14:20.013Z,6.10
2022-08-03T06:16:49.301Z,5.40
2022-08-03T06:19:19.009Z,7.10
2022-08-03T06:21:48.293Z,5.80
2022-08-03T06:24:18.032Z,5.60
2022-08-03T06:26:54.971Z,4.60
2022-08-03T06:29:24.278Z,9.00
2022-08-03T06:31:53.582Z,4.80
2022-08-03T06:34:33.306Z,6.00
2022-08-03T06:37:05.382Z,5.20
2022-08-03T06:39:34.821Z,10.10
2022-08-03T06:42:04.630Z,6.90
2022-08-03T06:44:39.043Z,5.00
2022-08-03T06:47:08.370Z,5.20
2022-08-03T06:49:37.789Z,4.80
2022-08-03T06:52:07.442Z,6.50
2022-08-03T06:54:37.224Z,5.40
2022-08-03T06:57:06.596Z,4.70
2022-08-03T07:00:09.904Z,4.10
2022-08-03T07:02:28.179Z,6.60
2022-08-03T07:04:58.040Z,5.60
2022-08-03T07:07:27.387Z,5.90
2022-08-03T07:09:58.191Z,5.00
2022-08-03T07:12:28.020Z,5.70
2022-08-03T07:15:00.843Z,3.60
2022-08-03T07:17:31.487Z,7.50
2022-08-03T07:20:00.805Z,4.50
2022-08-03T07:22:30.111Z,4.30
2022-08-03T07:24:59.307Z,5.20
2022-08-03T07:27:29.894Z,6.30
2022-08-03T07:29:59.229Z,5.20
2022-08-03T07:32:28.758Z,5.10
2022-08-03T07:35:00.897Z,3.40
2022-08-03T07:37:31.052Z,5.90
2022-08-03T07:40:00.512Z,3.90
2022-08-03T07:42:29.827Z,3.50
2022-08-03T07:44:59.159Z,3.20
2022-08-03T07:47:35.046Z,4.60
2022-08-03T07:50:05.876Z,3.80
2022-08-03T07:52:50.815Z,6.10
2022-08-03T07:55:20.355Z,6.10
2022-08-03T07:57:49.777Z,3.90
2022-08-03T08:00:19.184Z,4.00
2022-08-03T08:02:48.560Z,3.90
2022-08-03T08:05:18.530Z,4.80
2022-08-03T08:07:50.832Z,3.10
2022-08-03T08:10:21.173Z,3.60
2022-08-03T08:12:50.601Z,5.40
2022-08-03T08:15:19.919Z,5.00
2022-08-03T08:17:49.325Z,8.50
2022-08-03T08:20:25.227Z,6.00
2022-08-03T08:23:01.089Z,3.10
2022-08-03T08:25:31.483Z,5.30
2022-08-03T08:28:30.056Z,4.50
2022-08-03T08:30:52.214Z,3.50
2022-08-03T08:33:22.958Z,3.60
2022-08-03T08:35:53.347Z,4.50
2022-08-03T08:38:22.742Z,5.10
2022-08-03T08:40:52.211Z,3.50
2022-08-03T08:43:21.584Z,5.00
2022-08-03T08:45:51.032Z,7.20
2022-08-03T08:48:20.285Z,3.80
2022-08-03T08:50:49.714Z,2.70
2022-08-03T08:53:21.664Z,4.40
2022-08-03T08:55:58.686Z,5.60
2022-08-03T08:58:29.952Z,5.30
2022-08-03T09:00:59.970Z,6.60
2022-08-03T09:03:30.792Z,4.40
2022-08-03T09:06:00.609Z,3.20
2022-08-03T09:08:29.995Z,4.30
2022-08-03T09:10:59.439Z,3.90
2022-08-03T09:13:29.443Z,4.00
2022-08-03T09:16:00.934Z,3.20
2022-08-03T09:18:32.574Z,3.90
2022-08-03T09:21:18.995Z,4.30
2022-08-03T09:24:02.441Z,4.50
2022-08-03T09:26:33.559Z,3.50
2022-08-03T09:29:08.121Z,6.30
2022-08-03T09:31:43.300Z,5.70
2022-08-03T09:34:13.794Z,3.20
2022-08-03T09:36:43.180Z,6.10
2022-08-03T09:39:12.470Z,6.40
2022-08-03T09:41:41.750Z,3.30
2022-08-03T09:44:16.210Z,4.50
2022-08-03T09:46:55.372Z,4.40
2022-08-03T09:49:25.064Z,3.40
2022-08-03T09:52:32.613Z,2.90
2022-08-03T09:54:44.336Z,2.90
2022-08-03T09:57:13.702Z,4.40
2022-08-03T09:59:43.629Z,4.20
2022-08-03T10:02:14.661Z,3.10
2022-08-03T10:04:43.910Z,4.60
2022-08-03T10:07:13.269Z,5.20
2022-08-03T10:09:44.033Z,5.20
2022-08-03T10:12:13.402Z,2.80
2022-08-03T10:14:45.817Z,2.50
2022-08-03T10:17:15.306Z,3.00
2022-08-03T10:19:44.951Z,3.30
2022-08-03T10:22:14.421Z,3.00
2022-08-03T10:24:43.776Z,3.40
2022-08-03T10:27:13.153Z,4.70
2022-08-03T10:29:42.666Z,4.40
2022-08-03T10:32:12.285Z,2.60
2022-08-03T10:34:44.535Z,3.70
2022-08-03T10:37:14.355Z,5.40
2022-08-03T10:39:53.690Z,2.40
2022-08-03T10:42:23.022Z,3.10
2022-08-03T10:44:53.421Z,3.20
2022-08-03T10:47:22.792Z,4.80
2022-08-03T10:49:52.181Z,2.00
2022-08-03T10:52:32.750Z,3.90
2022-08-03T10:55:22.115Z,3.80
2022-08-03T10:57:58.305Z,3.10
2022-08-03T11:00:28.670Z,3.00
2022-08-03T11:02:57.915Z,2.60
2022-08-03T11:05:27.140Z,2.60
2022-08-03T11:07:56.470Z,3.50
2022-08-03T11:10:25.792Z,4.60
2022-08-03T11:12:55.089Z,4.20
2022-08-03T11:15:24.287Z,3.80
2022-08-03T11:17:55.841Z,3.60
2022-08-03T11:20:26.247Z,3.60
2022-08-03T11:22:57.402Z,3.60
2022-08-03T11:25:53.989Z,4.20
2022-08-03T11:28:16.200Z,3.50
2022-08-03T11:30:45.428Z,2.20
2022-08-03T11:33:14.638Z,2.20
2022-08-03T11:35:45.925Z,2.10
2022-08-03T11:38:15.659Z,4.90
2022-08-03T11:40:45.466Z,5.50
2022-08-03T11:43:14.871Z,3.00
2022-08-03T11:45:44.063Z,4.10
2022-08-03T11:48:13.332Z,5.20
2022-08-03T11:50:45.501Z,4.00
2022-08-03T11:53:14.801Z,2.70
2022-08-03T11:55:47.306Z,4.50
2022-08-03T11:59:16.885Z,4.00
2022-08-03T12:01:05.937Z,8.90
2022-08-03T12:03:35.290Z,2.60
2022-08-03T12:06:05.144Z,5.00
2022-08-03T12:08:34.433Z,3.80
2022-08-03T12:11:04.882Z,2.20
2022-08-03T12:13:56.779Z,2.50
2022-08-03T12:16:23.583Z,2.60
2022-08-03T12:18:52.898Z,4.00
2022-08-03T12:21:25.042Z,3.50
2022-08-03T12:23:54.275Z,2.50
2022-08-03T12:26:23.724Z,2.00
2022-08-03T12:28:53.048Z,2.90
2022-08-03T12:31:22.449Z,2.70
2022-08-03T12:33:51.822Z,3.80
2022-08-03T12:36:20.987Z,2.30
2022-08-03T12:38:50.456Z,3.40
2022-08-03T12:41:21.037Z,2.60
2022-08-03T12:43:50.532Z,5.00
2022-08-03T12:46:19.998Z,5.30
2022-08-03T12:48:49.286Z,3.00
2022-08-03T12:51:18.635Z,3.70
2022-08-03T12:53:47.877Z,2.80
2022-08-03T12:56:18.335Z,6.70
2022-08-03T12:58:48.239Z,3.80
2022-08-03T13:01:17.615Z,3.60
2022-08-03T13:03:52.562Z,2.80
2022-08-03T13:06:22.540Z,6.10
2022-08-03T13:08:52.833Z,4.70
2022-08-03T13:11:22.182Z,6.20
2022-08-03T13:13:51.530Z,4.10
2022-08-03T13:16:22.277Z,3.20
2022-08-03T13:18:52.343Z,5.50
2022-08-03T13:21:23.318Z,5.10
2022-08-03T13:23:52.607Z,4.00
2022-08-03T13:26:21.893Z,4.30
2022-08-03T13:28:51.573Z,4.30
2022-08-03T13:31:20.938Z,2.20
2022-08-03T13:33:50.191Z,3.20
2022-08-03T13:36:20.793Z,4.30
2022-08-03T13:38:50.086Z,4.90
2022-08-03T13:41:19.477Z,3.00
2022-08-03T13:44:25.441Z,3.30
2022-08-03T13:46:50.121Z,4.80
2022-08-03T13:49:20.032Z,6.00
2022-08-03T13:51:49.128Z,3.80
2022-08-03T13:54:19.615Z,4.20
2022-08-03T13:56:52.863Z,4.00
2022-08-03T13:59:22.183Z,4.00
2022-08-03T14:01:55.231Z,2.80
2022-08-03T14:04:25.309Z,4.30
2022-08-03T14:06:54.502Z,3.60
2022-08-03T14:09:23.680Z,5.80
2022-08-03T14:12:07.829Z,2.20
2022-08-03T14:14:38.344Z,7.30
2022-08-03T14:17:07.588Z,6.60
2022-08-03T14:19:52.617Z,4.00
2022-08-03T14:22:23.427Z,4.30
2022-08-03T14:24:52.761Z,5.50
2022-08-03T14:27:22.520Z,4.60
2022-08-03T14:29:52.401Z,4.60
2022-08-03T14:32:21.662Z,4.90
2022-08-03T14:34:50.848Z,4.60
2022-08-03T14:37:20.392Z,2.70
2022-08-03T14:40:05.539Z,4.30
2022-08-03T14:45:09.069Z,3.10
2022-08-03T14:50:34.339Z,2.20
2022-08-03T14:50:41.642Z,4.40
2022-08-03T14:53:14.189Z,6.30
2022-08-03T14:55:50.813Z,5.40
2022-08-03T14:58:21.861Z,3.60
2022-08-03T15:00:51.635Z,3.70
2022-08-03T15:03:24.049Z,5.60
2022-08-03T15:05:53.522Z,2.90
2022-08-03T15:08:22.814Z,3.30
2022-08-03T15:10:52.157Z,3.20
2022-08-03T15:13:21.406Z,4.00
2022-08-03T15:15:52.146Z,3.60
2022-08-03T15:18:21.712Z,2.60
2022-08-03T15:20:51.096Z,3.80
2022-08-03T15:23:20.490Z,4.60
2022-08-03T15:26:32.241Z,5.00
2022-08-03T15:28:39.531Z,4.20
2022-08-03T15:31:09.100Z,2.60
2022-08-03T15:33:38.290Z,7.10
2022-08-03T15:36:07.385Z,6.40
2022-08-03T15:38:36.556Z,4.60
2022-08-03T15:41:05.720Z,5.10
2022-08-03T15:43:47.704Z,6.50
2022-08-03T15:46:29.232Z,5.70
2022-08-03T15:48:59.211Z,3.50
2022-08-03T15:51:28.422Z,5.00
2022-08-03T15:53:57.594Z,7.90
2022-08-03T15:56:27.276Z,2.70
2022-08-03T15:59:03.266Z,4.10
2022-08-03T16:01:43.007Z,3.80
2022-08-03T16:04:12.271Z,4.40
2022-08-03T16:06:41.449Z,2.00
2022-08-03T16:09:24.026Z,4.00
2022-08-03T16:12:00.411Z,4.80
2022-08-03T16:14:32.200Z,4.90
2022-08-03T16:17:07.129Z,7.20
2022-08-03T16:19:36.309Z,2.60
2022-08-03T16:22:08.948Z,4.60
2022-08-03T16:24:38.263Z,4.10
2022-08-03T16:27:36.616Z,3.10
2022-08-03T16:29:58.612Z,5.60
2022-08-03T16:32:27.793Z,7.00
2022-08-03T16:34:56.942Z,2.60
2022-08-03T16:37:41.843Z,3.00
2022-08-03T16:40:19.227Z,7.10
2022-08-03T16:42:48.916Z,5.40
2022-08-03T16:45:18.635Z,2.10
2022-08-03T16:47:47.823Z,3.50
2022-08-03T16:50:30.767Z,3.20
2022-08-03T16:53:00.728Z,4.80
2022-08-03T16:55:48.836Z,4.70
2022-08-03T16:58:24.392Z,2.10
2022-08-03T17:01:20.751Z,3.70
2022-08-03T17:04:01.317Z,5.80
2022-08-03T17:09:04.222Z,2.80
2022-08-03T17:11:38.643Z,4.60
2022-08-03T17:14:14.702Z,3.10
2022-08-03T17:16:45.126Z,3.50
2022-08-03T17:19:23.214Z,2.10
2022-08-03T17:21:53.012Z,1.90
2022-08-03T17:24:23.774Z,2.10
2022-08-03T17:26:54.659Z,7.90
2022-08-03T17:29:26.035Z,4.80
2022-08-03T17:31:59.514Z,4.40
2022-08-03T17:34:28.697Z,4.40
2022-08-03T17:37:06.311Z,4.00
2022-08-03T17:39:57.693Z,6.20
2022-08-03T17:42:29.630Z,3.90
2022-08-03T17:45:01.947Z,4.30
2022-08-03T17:47:42.477Z,2.70
2022-08-03T17:50:24.607Z,8.00
2022-08-03T17:52:55.259Z,4.70
2022-08-03T17:55:57.481Z,3.30
2022-08-03T17:58:13.796Z,6.40
2022-08-03T18:01:02.266Z,8.20
2022-08-03T18:03:31.774Z,5.10
2022-08-03T18:06:28.556Z,3.80
2022-08-03T18:09:00.183Z,5.60
2022-08-03T18:11:35.768Z,4.80
2022-08-03T18:14:16.071Z,7.80
2022-08-03T18:16:46.109Z,5.50
2022-08-03T18:19:15.273Z,3.70
2022-08-03T18:22:02.905Z,4.80
2022-08-03T18:24:33.184Z,12.40
2022-08-03T18:27:03.169Z,8.20
2022-08-03T18:29:33.940Z,11.40
2022-08-03T18:32:06.114Z,16.10
2022-08-03T18:34:41.127Z,11.70
2022-08-03T18:37:25.332Z,6.80
2022-08-03T18:39:54.841Z,4.70
2022-08-03T18:45:15.061Z,6.00
2022-08-03T18:48:02.656Z,6.00
2022-08-03T18:50:31.898Z,6.40
2022-08-03T18:53:01.141Z,6.60
2022-08-03T18:55:32.947Z,8.90
2022-08-03T18:58:03.194Z,9.80
2022-08-03T19:00:53.982Z,13.70
2022-08-03T19:03:23.127Z,7.90
2022-08-03T19:06:02.434Z,10.60
2022-08-03T19:08:36.413Z,7.10
2022-08-03T19:11:06.264Z,9.20
2022-08-03T19:13:36.067Z,9.80
2022-08-03T19:16:08.546Z,7.70
2022-08-03T19:18:38.111Z,5.90
2022-08-03T19:23:56.759Z,8.80
2022-08-03T19:26:30.025Z,10.80
2022-08-03T19:29:00.603Z,11.70
2022-08-03T19:31:31.155Z,10.20
2022-08-03T19:34:04.278Z,11.00
2022-08-03T19:36:33.519Z,9.30
2022-08-03T19:39:10.315Z,8.70
2022-08-03T19:41:41.656Z,11.70
2022-08-03T19:44:12.189Z,7.60
2022-08-03T19:46:42.513Z,10.70
2022-08-03T19:49:15.399Z,6.90
2022-08-03T19:52:02.159Z,9.30
2022-08-03T19:54:33.139Z,9.10
2022-08-03T19:57:04.796Z,10.60
2022-08-03T19:59:37.810Z,10.70
2022-08-03T20:02:26.767Z,17.90
2022-08-03T20:04:57.451Z,14.50
2022-08-03T20:07:27.061Z,10.40
2022-08-03T20:09:57.042Z,13.10
2022-08-03T20:15:22.521Z,16.00
2022-08-03T20:18:01.010Z,12.70
2022-08-03T20:20:30.321Z,12.80
2022-08-03T20:22:59.877Z,15.80
2022-08-03T20:25:38.395Z,11.30
2022-08-03T20:28:13.627Z,10.30
2022-08-03T20:30:44.144Z,10.00
2022-08-03T20:33:18.893Z,12.90
2022-08-03T20:35:49.786Z,15.70
2022-08-03T20:38:19.407Z,16.10
2022-08-03T20:40:48.703Z,11.70
2022-08-03T20:43:20.098Z,17.20
2022-08-03T20:46:29.622Z,16.20
2022-08-03T20:48:56.615Z,16.20
2022-08-03T20:51:50.395Z,18.10
2022-08-03T20:54:29.017Z,13.30
2022-08-03T20:56:59.691Z,11.00
2022-08-03T20:59:46.846Z,13.40
2022-08-03T21:02:19.613Z,13.10
2022-08-03T21:04:58.720Z,13.70
2022-08-03T21:08:04.203Z,11.60
2022-08-03T21:10:21.936Z,12.40
2022-08-03T21:13:04.112Z,7.00
2022-08-03T21:13:09.324Z,11.30
2022-08-03T21:13:10.908Z,20.90
2022-08-03T21:13:12.501Z,14.30
2022-08-03T21:16:06.939Z,12.10
2022-08-03T21:18:34.473Z,16.20
2022-08-03T21:21:03.794Z,15.90
2022-08-03T21:23:39.913Z,13.10
2022-08-03T21:26:17.807Z,16.50
2022-08-03T21:28:47.058Z,15.70
2022-08-03T21:31:24.296Z,18.20
2022-08-03T21:33:56.086Z,15.50
2022-08-03T21:36:25.352Z,15.50
2022-08-03T21:38:56.522Z,17.70
2022-08-03T21:41:26.180Z,14.40
2022-08-03T21:43:55.377Z,15.90
2022-08-03T21:46:25.106Z,15.80
2022-08-03T21:48:54.461Z,13.10
2022-08-03T21:51:23.665Z,15.80
2022-08-03T21:54:02.376Z,14.60
2022-08-03T21:56:32.705Z,12.60
2022-08-03T21:59:02.105Z,19.20
2022-08-03T22:01:35.281Z,13.00
2022-08-03T22:04:06.857Z,14.50
2022-08-03T22:06:36.491Z,13.00
2022-08-03T22:09:05.759Z,13.30
2022-08-03T22:11:35.053Z,14.70
2022-08-03T22:14:04.450Z,14.20
2022-08-03T22:16:33.799Z,20.00
2022-08-03T22:19:02.979Z,16.80
2022-08-03T22:21:36.288Z,14.00
2022-08-03T22:24:06.025Z,13.20
2022-08-03T22:26:35.750Z,14.90
2022-08-03T22:29:05.171Z,13.60
2022-08-03T22:31:57.547Z,14.60
2022-08-03T22:34:24.443Z,14.60
2022-08-03T22:36:56.551Z,13.90
2022-08-03T22:39:27.302Z,16.10
2022-08-03T22:41:56.916Z,16.90
2022-08-03T22:44:26.248Z,14.60
2022-08-03T22:46:55.616Z,14.10
2022-08-03T22:49:24.903Z,13.40
2022-08-03T22:51:54.203Z,14.90
2022-08-03T22:54:23.376Z,15.00
2022-08-03T22:56:52.706Z,15.30
2022-08-03T22:59:38.873Z,12.10
2022-08-03T23:02:20.614Z,16.20
2022-08-03T23:04:51.629Z,13.00
2022-08-03T23:07:21.176Z,11.50
2022-08-03T23:09:50.642Z,16.90
2022-08-03T23:12:21.691Z,14.50
2022-08-03T23:14:52.731Z,14.40
2022-08-03T23:17:24.148Z,13.40
2022-08-03T23:19:53.969Z,16.50
2022-08-03T23:22:30.447Z,14.30
2022-08-03T23:25:03.264Z,15.20
2022-08-03T23:27:32.591Z,15.90
2022-08-03T23:30:01.842Z,15.50
2022-08-03T23:32:31.027Z,15.30
2022-08-03T23:35:18.034Z,14.40
2022-08-03T23:38:04.297Z,14.40
2022-08-03T23:40:36.487Z,15.90
2022-08-03T23:43:05.777Z,12.20
2022-08-03T23:45:35.201Z,15.30
2022-08-03T23:48:04.553Z,15.00
2022-08-03T23:50:33.743Z,19.20
2022-08-03T23:53:02.983Z,15.20
2022-08-03T23:55:32.244Z,17.60
2022-08-03T23:58:01.514Z,19.10
